sensor_id;sensor_type;location;lat;lon;timestamp;temperature;humidity
23540;DHT22;11947;50.810;4.394;2023-02-02T00:01:13;9.20;99.90
23540;DHT22;11947;50.810;4.394;2023-02-02T00:03:38;9.10;99.90
23540;DHT22;11947;50.810;4.394;2023-02-02T00:06:05;9.20;99.90
23540;DHT22;11947;50.810;4.394;2023-02-02T00:08:31;9.20;99.90
23540;DHT22;11947;50.810;4.394;2023-02-02T00:10:56;9.40;99.90
23540;DHT22;11947;50.810;4.394;2023-02-02T00:13:22;9.20;99.90
23540;DHT22;11947;50.810;4.394;2023-02-02T00:15:47;9.20;99.90
23540;DHT22;11947;50.810;4.394;2023-02-02T00:18:13;9.10;99.90
23540;DHT22;11947;50.810;4.394;2023-02-02T00:20:39;9.10;99.90
23540;DHT22;11947;50.810;4.394;2023-02-02T00:23:04;9.20;99.90
23540;DHT22;11947;50.810;4.394;2023-02-02T00:25:30;9.10;99.90
23540;DHT22;11947;50.810;4.394;2023-02-02T00:27:56;9.30;99.90
23540;DHT22;11947;50.810;4.394;2023-02-02T00:30:21;9.30;99.90
23540;DHT22;11947;50.810;4.394;2023-02-02T00:32:47;9.20;99.90
23540;DHT22;11947;50.810;4.394;2023-02-02T00:35:15;9.30;99.90
23540;DHT22;11947;50.810;4.394;2023-02-02T00:37:40;9.30;99.90
23540;DHT22;11947;50.810;4.394;2023-02-02T00:40:07;9.20;99.90
23540;DHT22;11947;50.810;4.394;2023-02-02T00:42:32;9.20;99.90
23540;DHT22;11947;50.810;4.394;2023-02-02T00:44:58;9.10;99.90
23540;DHT22;11947;50.810;4.394;2023-02-02T00:47:47;9.40;99.90
23540;DHT22;11947;50.810;4.394;2023-02-02T00:50:16;9.30;99.90
23540;DHT22;11947;50.810;4.394;2023-02-02T00:52:42;9.30;99.90
23540;DHT22;11947;50.810;4.394;2023-02-02T00:55:08;9.20;99.90
23540;DHT22;11947;50.810;4.394;2023-02-02T00:57:34;9.20;99.90
23540;DHT22;11947;50.810;4.394;2023-02-02T01:00:00;9.40;99.90
23540;DHT22;11947;50.810;4.394;2023-02-02T01:02:25;9.30;99.90
23540;DHT22;11947;50.810;4.394;2023-02-02T01:04:51;9.20;99.90
23540;DHT22;11947;50.810;4.394;2023-02-02T01:07:16;9.30;99.90
23540;DHT22;11947;50.810;4.394;2023-02-02T01:09:42;9.30;99.90
23540;DHT22;11947;50.810;4.394;2023-02-02T01:12:08;9.30;99.90
23540;DHT22;11947;50.810;4.394;2023-02-02T01:14:33;9.20;99.90
23540;DHT22;11947;50.810;4.394;2023-02-02T01:16:59;9.30;99.90
23540;DHT22;11947;50.810;4.394;2023-02-02T01:19:25;9.20;99.90
23540;DHT22;11947;50.810;4.394;2023-02-02T01:21:50;9.30;99.90
23540;DHT22;11947;50.810;4.394;2023-02-02T01:24:16;9.30;99.90
23540;DHT22;11947;50.810;4.394;2023-02-02T01:26:41;9.30;99.90
23540;DHT22;11947;50.810;4.394;2023-02-02T01:29:07;9.40;99.90
23540;DHT22;11947;50.810;4.394;2023-02-02T01:31:33;9.30;99.90
23540;DHT22;11947;50.810;4.394;2023-02-02T01:33:58;9.20;99.90
23540;DHT22;11947;50.810;4.394;2023-02-02T01:36:24;9.40;99.90
23540;DHT22;11947;50.810;4.394;2023-02-02T01:38:50;9.40;99.90
23540;DHT22;11947;50.810;4.394;2023-02-02T01:41:19;9.30;99.90
23540;DHT22;11947;50.810;4.394;2023-02-02T01:46:19;9.30;99.90
23540;DHT22;11947;50.810;4.394;2023-02-02T01:49:15;9.20;99.90
23540;DHT22;11947;50.810;4.394;2023-02-02T01:54:23;9.20;99.90
23540;DHT22;11947;50.810;4.394;2023-02-02T01:57:01;9.30;99.90
23540;DHT22;11947;50.810;4.394;2023-02-02T01:59:29;9.20;99.90
23540;DHT22;11947;50.810;4.394;2023-02-02T02:01:55;9.20;99.90
23540;DHT22;11947;50.810;4.394;2023-02-02T02:04:22;9.40;99.90
23540;DHT22;11947;50.810;4.394;2023-02-02T02:06:48;9.30;99.90
23540;DHT22;11947;50.810;4.394;2023-02-02T02:09:16;9.20;99.90
23540;DHT22;11947;50.810;4.394;2023-02-02T02:11:42;9.40;99.90
23540;DHT22;11947;50.810;4.394;2023-02-02T02:14:08;9.20;99.90
23540;DHT22;11947;50.810;4.394;2023-02-02T02:28:57;9.20;99.90
23540;DHT22;11947;50.810;4.394;2023-02-02T02:36:47;9.40;99.90
23540;DHT22;11947;50.810;4.394;2023-02-02T02:39:54;9.20;99.90
23540;DHT22;11947;50.810;4.394;2023-02-02T02:42:16;9.10;99.90
23540;DHT22;11947;50.810;4.394;2023-02-02T02:44:44;9.00;99.90
23540;DHT22;11947;50.810;4.394;2023-02-02T02:47:11;9.20;99.90
23540;DHT22;11947;50.810;4.394;2023-02-02T02:49:47;9.20;99.90
23540;DHT22;11947;50.810;4.394;2023-02-02T02:52:13;9.10;99.90
23540;DHT22;11947;50.810;4.394;2023-02-02T02:54:44;9.10;99.90
23540;DHT22;11947;50.810;4.394;2023-02-02T03:00:25;9.10;99.90
23540;DHT22;11947;50.810;4.394;2023-02-02T03:09:17;9.20;99.90
23540;DHT22;11947;50.810;4.394;2023-02-02T03:11:45;9.20;99.90
23540;DHT22;11947;50.810;4.394;2023-02-02T03:14:10;9.20;99.90
23540;DHT22;11947;50.810;4.394;2023-02-02T03:16:37;9.10;99.90
23540;DHT22;11947;50.810;4.394;2023-02-02T03:19:03;9.20;99.90
23540;DHT22;11947;50.810;4.394;2023-02-02T03:21:30;9.30;99.90
23540;DHT22;11947;50.810;4.394;2023-02-02T03:23:55;9.10;99.90
23540;DHT22;11947;50.810;4.394;2023-02-02T03:26:21;9.20;99.90
23540;DHT22;11947;50.810;4.394;2023-02-02T03:28:48;9.00;99.90
23540;DHT22;11947;50.810;4.394;2023-02-02T03:31:14;9.20;99.90
23540;DHT22;11947;50.810;4.394;2023-02-02T03:33:40;9.00;99.90
23540;DHT22;11947;50.810;4.394;2023-02-02T03:36:06;9.10;99.90
23540;DHT22;11947;50.810;4.394;2023-02-02T03:38:32;9.00;99.90
23540;DHT22;11947;50.810;4.394;2023-02-02T03:40:57;9.00;99.90
23540;DHT22;11947;50.810;4.394;2023-02-02T03:43:23;9.00;99.90
23540;DHT22;11947;50.810;4.394;2023-02-02T03:46:01;8.90;99.90
23540;DHT22;11947;50.810;4.394;2023-02-02T03:48:29;9.10;99.90
23540;DHT22;11947;50.810;4.394;2023-02-02T03:50:55;9.00;99.90
23540;DHT22;11947;50.810;4.394;2023-02-02T03:53:21;8.90;99.90
23540;DHT22;11947;50.810;4.394;2023-02-02T03:55:47;8.90;99.90
23540;DHT22;11947;50.810;4.394;2023-02-02T03:58:13;9.10;99.90
23540;DHT22;11947;50.810;4.394;2023-02-02T04:00:38;8.90;99.90
23540;DHT22;11947;50.810;4.394;2023-02-02T04:03:04;9.20;99.90
23540;DHT22;11947;50.810;4.394;2023-02-02T04:05:29;9.20;99.90
23540;DHT22;11947;50.810;4.394;2023-02-02T04:07:55;9.20;99.90
23540;DHT22;11947;50.810;4.394;2023-02-02T04:10:20;8.90;99.90
23540;DHT22;11947;50.810;4.394;2023-02-02T04:12:46;8.90;99.90
23540;DHT22;11947;50.810;4.394;2023-02-02T04:15:12;8.90;99.90
23540;DHT22;11947;50.810;4.394;2023-02-02T04:17:37;9.10;99.90
23540;DHT22;11947;50.810;4.394;2023-02-02T04:20:04;9.10;99.90
23540;DHT22;11947;50.810;4.394;2023-02-02T04:22:30;9.00;99.90
23540;DHT22;11947;50.810;4.394;2023-02-02T04:24:56;8.90;99.90
23540;DHT22;11947;50.810;4.394;2023-02-02T04:27:22;9.00;99.90
23540;DHT22;11947;50.810;4.394;2023-02-02T04:29:47;8.90;99.90
23540;DHT22;11947;50.810;4.394;2023-02-02T04:32:14;8.90;99.90
23540;DHT22;11947;50.810;4.394;2023-02-02T04:34:40;9.10;99.90
23540;DHT22;11947;50.810;4.394;2023-02-02T04:37:06;8.90;99.90
23540;DHT22;11947;50.810;4.394;2023-02-02T04:39:31;8.90;99.90
23540;DHT22;11947;50.810;4.394;2023-02-02T04:41:57;8.90;99.90
23540;DHT22;11947;50.810;4.394;2023-02-02T04:44:22;8.90;99.90
23540;DHT22;11947;50.810;4.394;2023-02-02T04:46:48;8.90;99.90
23540;DHT22;11947;50.810;4.394;2023-02-02T04:49:14;8.90;99.90
23540;DHT22;11947;50.810;4.394;2023-02-02T04:51:40;8.80;99.90
23540;DHT22;11947;50.810;4.394;2023-02-02T04:54:06;8.90;99.90
23540;DHT22;11947;50.810;4.394;2023-02-02T04:56:32;8.80;99.90
23540;DHT22;11947;50.810;4.394;2023-02-02T04:58:58;8.80;99.90
23540;DHT22;11947;50.810;4.394;2023-02-02T05:01:23;8.70;99.90
23540;DHT22;11947;50.810;4.394;2023-02-02T05:03:50;8.90;99.90
23540;DHT22;11947;50.810;4.394;2023-02-02T05:06:16;8.90;99.90
23540;DHT22;11947;50.810;4.394;2023-02-02T05:08:43;8.90;99.90
23540;DHT22;11947;50.810;4.394;2023-02-02T05:11:17;9.10;99.90
23540;DHT22;11947;50.810;4.394;2023-02-02T05:13:51;8.90;99.90
23540;DHT22;11947;50.810;4.394;2023-02-02T05:16:17;9.10;99.90
23540;DHT22;11947;50.810;4.394;2023-02-02T05:18:47;8.90;99.90
23540;DHT22;11947;50.810;4.394;2023-02-02T05:21:13;9.00;99.90
23540;DHT22;11947;50.810;4.394;2023-02-02T05:23:38;8.90;99.90
23540;DHT22;11947;50.810;4.394;2023-02-02T05:26:04;8.70;99.90
23540;DHT22;11947;50.810;4.394;2023-02-02T05:28:29;8.60;99.90
23540;DHT22;11947;50.810;4.394;2023-02-02T05:30:55;8.60;99.90
23540;DHT22;11947;50.810;4.394;2023-02-02T05:33:22;8.50;99.90
23540;DHT22;11947;50.810;4.394;2023-02-02T05:35:47;8.40;99.90
23540;DHT22;11947;50.810;4.394;2023-02-02T05:38:14;8.30;99.90
23540;DHT22;11947;50.810;4.394;2023-02-02T05:40:40;8.20;99.90
23540;DHT22;11947;50.810;4.394;2023-02-02T05:43:06;8.10;99.90
23540;DHT22;11947;50.810;4.394;2023-02-02T05:45:31;8.10;99.90
23540;DHT22;11947;50.810;4.394;2023-02-02T05:47:57;8.10;99.90
23540;DHT22;11947;50.810;4.394;2023-02-02T05:50:23;8.20;99.90
23540;DHT22;11947;50.810;4.394;2023-02-02T05:52:49;8.10;99.90
23540;DHT22;11947;50.810;4.394;2023-02-02T05:55:15;8.00;99.90
23540;DHT22;11947;50.810;4.394;2023-02-02T05:57:42;8.00;99.90
23540;DHT22;11947;50.810;4.394;2023-02-02T06:00:09;8.00;99.90
23540;DHT22;11947;50.810;4.394;2023-02-02T06:02:35;8.00;99.90
23540;DHT22;11947;50.810;4.394;2023-02-02T06:05:00;8.00;99.90
23540;DHT22;11947;50.810;4.394;2023-02-02T06:07:26;8.10;99.90
23540;DHT22;11947;50.810;4.394;2023-02-02T06:09:51;8.00;99.90
23540;DHT22;11947;50.810;4.394;2023-02-02T06:12:17;8.00;99.90
23540;DHT22;11947;50.810;4.394;2023-02-02T06:14:43;8.10;99.90
23540;DHT22;11947;50.810;4.394;2023-02-02T06:17:09;8.00;99.90
23540;DHT22;11947;50.810;4.394;2023-02-02T06:19:35;8.00;99.90
23540;DHT22;11947;50.810;4.394;2023-02-02T06:22:00;7.90;99.90
23540;DHT22;11947;50.810;4.394;2023-02-02T06:24:26;7.90;99.90
23540;DHT22;11947;50.810;4.394;2023-02-02T06:26:52;8.00;99.90
23540;DHT22;11947;50.810;4.394;2023-02-02T06:29:17;8.00;99.90
23540;DHT22;11947;50.810;4.394;2023-02-02T06:31:43;8.10;99.90
23540;DHT22;11947;50.810;4.394;2023-02-02T06:34:10;8.20;99.90
23540;DHT22;11947;50.810;4.394;2023-02-02T06:36:39;8.00;99.90
23540;DHT22;11947;50.810;4.394;2023-02-02T06:39:04;8.00;99.90
23540;DHT22;11947;50.810;4.394;2023-02-02T06:41:33;8.00;99.90
23540;DHT22;11947;50.810;4.394;2023-02-02T06:43:58;8.20;99.90
23540;DHT22;11947;50.810;4.394;2023-02-02T06:46:24;8.00;99.90
23540;DHT22;11947;50.810;4.394;2023-02-02T06:48:50;8.00;99.90
23540;DHT22;11947;50.810;4.394;2023-02-02T06:51:15;8.00;99.90
23540;DHT22;11947;50.810;4.394;2023-02-02T06:53:41;7.90;99.90
23540;DHT22;11947;50.810;4.394;2023-02-02T06:56:12;8.10;99.90
23540;DHT22;11947;50.810;4.394;2023-02-02T06:58:38;7.90;99.90
23540;DHT22;11947;50.810;4.394;2023-02-02T07:01:06;8.00;99.90
23540;DHT22;11947;50.810;4.394;2023-02-02T07:03:32;7.90;99.90
23540;DHT22;11947;50.810;4.394;2023-02-02T07:05:59;7.90;99.90
23540;DHT22;11947;50.810;4.394;2023-02-02T07:08:24;8.00;99.90
23540;DHT22;11947;50.810;4.394;2023-02-02T07:10:50;8.00;99.90
23540;DHT22;11947;50.810;4.394;2023-02-02T07:13:15;7.90;99.90
23540;DHT22;11947;50.810;4.394;2023-02-02T07:15:41;8.10;99.90
23540;DHT22;11947;50.810;4.394;2023-02-02T07:18:07;8.00;99.90
23540;DHT22;11947;50.810;4.394;2023-02-02T07:20:32;7.90;99.90
23540;DHT22;11947;50.810;4.394;2023-02-02T07:22:58;8.00;99.90
23540;DHT22;11947;50.810;4.394;2023-02-02T07:25:24;7.90;99.90
23540;DHT22;11947;50.810;4.394;2023-02-02T07:27:53;7.90;99.90
23540;DHT22;11947;50.810;4.394;2023-02-02T07:30:20;7.90;99.90
23540;DHT22;11947;50.810;4.394;2023-02-02T07:32:47;7.90;99.90
23540;DHT22;11947;50.810;4.394;2023-02-02T07:35:14;7.90;99.90
23540;DHT22;11947;50.810;4.394;2023-02-02T07:37:39;8.00;99.90
23540;DHT22;11947;50.810;4.394;2023-02-02T07:40:05;8.00;99.90
23540;DHT22;11947;50.810;4.394;2023-02-02T07:42:32;8.00;99.90
23540;DHT22;11947;50.810;4.394;2023-02-02T07:44:57;8.10;99.90
23540;DHT22;11947;50.810;4.394;2023-02-02T07:47:24;8.20;99.90
23540;DHT22;11947;50.810;4.394;2023-02-02T07:49:49;8.00;99.90
23540;DHT22;11947;50.810;4.394;2023-02-02T07:52:15;8.00;99.90
23540;DHT22;11947;50.810;4.394;2023-02-02T07:54:41;8.00;99.90
23540;DHT22;11947;50.810;4.394;2023-02-02T07:57:06;8.00;99.90
23540;DHT22;11947;50.810;4.394;2023-02-02T07:59:32;8.00;99.90
23540;DHT22;11947;50.810;4.394;2023-02-02T08:01:58;8.00;99.90
23540;DHT22;11947;50.810;4.394;2023-02-02T08:04:23;7.90;99.90
23540;DHT22;11947;50.810;4.394;2023-02-02T08:06:49;8.00;99.90
23540;DHT22;11947;50.810;4.394;2023-02-02T08:09:15;8.10;99.90
23540;DHT22;11947;50.810;4.394;2023-02-02T08:11:40;8.10;99.90
23540;DHT22;11947;50.810;4.394;2023-02-02T08:14:06;8.10;99.90
23540;DHT22;11947;50.810;4.394;2023-02-02T08:16:32;8.10;99.90
23540;DHT22;11947;50.810;4.394;2023-02-02T08:18:58;8.10;99.90
23540;DHT22;11947;50.810;4.394;2023-02-02T08:21:24;8.30;99.90
23540;DHT22;11947;50.810;4.394;2023-02-02T08:23:51;8.10;99.90
23540;DHT22;11947;50.810;4.394;2023-02-02T08:26:28;8.30;99.90
23540;DHT22;11947;50.810;4.394;2023-02-02T08:28:56;8.20;99.90
23540;DHT22;11947;50.810;4.394;2023-02-02T08:31:24;8.30;99.90
23540;DHT22;11947;50.810;4.394;2023-02-02T08:33:51;8.40;99.90
23540;DHT22;11947;50.810;4.394;2023-02-02T08:36:20;8.50;99.90
23540;DHT22;11947;50.810;4.394;2023-02-02T08:38:46;8.40;99.90
23540;DHT22;11947;50.810;4.394;2023-02-02T08:41:15;8.40;99.90
23540;DHT22;11947;50.810;4.394;2023-02-02T08:43:41;8.40;99.90
23540;DHT22;11947;50.810;4.394;2023-02-02T08:46:08;8.40;99.90
23540;DHT22;11947;50.810;4.394;2023-02-02T08:48:35;8.70;99.90
23540;DHT22;11947;50.810;4.394;2023-02-02T08:51:01;8.50;99.90
23540;DHT22;11947;50.810;4.394;2023-02-02T08:53:27;8.50;99.90
23540;DHT22;11947;50.810;4.394;2023-02-02T08:56:01;8.70;99.90
23540;DHT22;11947;50.810;4.394;2023-02-02T08:58:28;8.60;99.90
23540;DHT22;11947;50.810;4.394;2023-02-02T09:00:54;8.80;99.90
23540;DHT22;11947;50.810;4.394;2023-02-02T09:03:20;8.50;99.90
23540;DHT22;11947;50.810;4.394;2023-02-02T09:05:45;8.60;99.90
23540;DHT22;11947;50.810;4.394;2023-02-02T09:08:11;8.60;99.90
23540;DHT22;11947;50.810;4.394;2023-02-02T09:10:37;8.70;99.90
23540;DHT22;11947;50.810;4.394;2023-02-02T09:13:03;8.60;99.90
23540;DHT22;11947;50.810;4.394;2023-02-02T09:15:29;8.70;99.90
23540;DHT22;11947;50.810;4.394;2023-02-02T09:17:54;8.90;99.90
23540;DHT22;11947;50.810;4.394;2023-02-02T09:20:20;8.90;99.90
23540;DHT22;11947;50.810;4.394;2023-02-02T09:22:46;8.90;99.90
23540;DHT22;11947;50.810;4.394;2023-02-02T09:25:12;9.00;99.90
23540;DHT22;11947;50.810;4.394;2023-02-02T09:27:38;9.00;99.90
23540;DHT22;11947;50.810;4.394;2023-02-02T09:30:07;9.10;99.90
23540;DHT22;11947;50.810;4.394;2023-02-02T09:32:33;9.20;99.90
23540;DHT22;11947;50.810;4.394;2023-02-02T09:34:59;9.40;99.90
23540;DHT22;11947;50.810;4.394;2023-02-02T09:37:25;9.50;99.90
23540;DHT22;11947;50.810;4.394;2023-02-02T09:39:51;9.50;99.90
23540;DHT22;11947;50.810;4.394;2023-02-02T09:45:25;9.70;99.90
23540;DHT22;11947;50.810;4.394;2023-02-02T09:47:55;9.80;99.90
23540;DHT22;11947;50.810;4.394;2023-02-02T09:53:09;10.00;99.90
23540;DHT22;11947;50.810;4.394;2023-02-02T09:55:57;10.20;99.90
23540;DHT22;11947;50.810;4.394;2023-02-02T09:58:38;10.40;99.90
23540;DHT22;11947;50.810;4.394;2023-02-02T10:01:12;10.50;99.90
23540;DHT22;11947;50.810;4.394;2023-02-02T10:03:41;10.80;99.90
23540;DHT22;11947;50.810;4.394;2023-02-02T10:06:23;10.80;99.90
23540;DHT22;11947;50.810;4.394;2023-02-02T10:08:58;10.90;99.90
23540;DHT22;11947;50.810;4.394;2023-02-02T10:11:46;11.00;99.90
23540;DHT22;11947;50.810;4.394;2023-02-02T10:14:27;11.00;99.90
23540;DHT22;11947;50.810;4.394;2023-02-02T10:16:56;11.10;99.90
23540;DHT22;11947;50.810;4.394;2023-02-02T10:19:25;11.20;99.90
23540;DHT22;11947;50.810;4.394;2023-02-02T10:22:13;11.50;99.90
23540;DHT22;11947;50.810;4.394;2023-02-02T10:24:42;11.40;99.90
23540;DHT22;11947;50.810;4.394;2023-02-02T10:27:12;11.50;99.90
23540;DHT22;11947;50.810;4.394;2023-02-02T10:29:51;11.60;99.90
23540;DHT22;11947;50.810;4.394;2023-02-02T10:38:07;11.80;99.90
23540;DHT22;11947;50.810;4.394;2023-02-02T10:40:47;12.10;99.90
23540;DHT22;11947;50.810;4.394;2023-02-02T10:46:09;12.10;99.90
23540;DHT22;11947;50.810;4.394;2023-02-02T10:48:47;12.20;99.90
23540;DHT22;11947;50.810;4.394;2023-02-02T10:51:23;12.00;99.90
23540;DHT22;11947;50.810;4.394;2023-02-02T10:53:56;12.20;99.90
23540;DHT22;11947;50.810;4.394;2023-02-02T10:59:11;12.30;99.90
23540;DHT22;11947;50.810;4.394;2023-02-02T11:01:38;12.40;99.90
23540;DHT22;11947;50.810;4.394;2023-02-02T11:04:04;12.20;99.90
23540;DHT22;11947;50.810;4.394;2023-02-02T11:06:48;12.20;99.90
23540;DHT22;11947;50.810;4.394;2023-02-02T11:09:18;12.40;99.90
23540;DHT22;11947;50.810;4.394;2023-02-02T11:11:45;12.50;99.90
23540;DHT22;11947;50.810;4.394;2023-02-02T11:17:33;12.50;99.90
23540;DHT22;11947;50.810;4.394;2023-02-02T11:19:59;12.40;99.90
23540;DHT22;11947;50.810;4.394;2023-02-02T11:22:34;12.70;99.90
23540;DHT22;11947;50.810;4.394;2023-02-02T11:27:57;13.10;99.90
23540;DHT22;11947;50.810;4.394;2023-02-02T11:30:33;13.50;99.90
23540;DHT22;11947;50.810;4.394;2023-02-02T11:33:28;13.50;99.90
23540;DHT22;11947;50.810;4.394;2023-02-02T11:36:06;13.50;99.90
23540;DHT22;11947;50.810;4.394;2023-02-02T11:38:42;13.70;99.90
23540;DHT22;11947;50.810;4.394;2023-02-02T11:41:08;13.70;99.90
23540;DHT22;11947;50.810;4.394;2023-02-02T11:43:50;13.70;99.90
23540;DHT22;11947;50.810;4.394;2023-02-02T11:48:50;13.60;99.90
23540;DHT22;11947;50.810;4.394;2023-02-02T11:51:22;13.60;99.90
23540;DHT22;11947;50.810;4.394;2023-02-02T11:53:49;13.70;99.90
23540;DHT22;11947;50.810;4.394;2023-02-02T11:56:20;13.80;99.90
23540;DHT22;11947;50.810;4.394;2023-02-02T11:58:55;13.60;99.90
23540;DHT22;11947;50.810;4.394;2023-02-02T12:01:36;13.50;99.90
23540;DHT22;11947;50.810;4.394;2023-02-02T12:06:43;13.50;99.90
23540;DHT22;11947;50.810;4.394;2023-02-02T12:09:22;13.30;99.90
23540;DHT22;11947;50.810;4.394;2023-02-02T12:12:08;13.00;99.90
23540;DHT22;11947;50.810;4.394;2023-02-02T12:15:21;12.60;99.90
23540;DHT22;11947;50.810;4.394;2023-02-02T12:17:55;12.60;99.90
23540;DHT22;11947;50.810;4.394;2023-02-02T12:20:39;12.70;99.90
23540;DHT22;11947;50.810;4.394;2023-02-02T12:34:45;12.30;99.90
23540;DHT22;11947;50.810;4.394;2023-02-02T12:42:49;12.50;99.90
23540;DHT22;11947;50.810;4.394;2023-02-02T12:56:36;13.40;99.90
23540;DHT22;11947;50.810;4.394;2023-02-02T13:02:02;13.30;99.90
23540;DHT22;11947;50.810;4.394;2023-02-02T13:07:40;12.90;99.90
23540;DHT22;11947;50.810;4.394;2023-02-02T13:10:15;12.60;99.90
23540;DHT22;11947;50.810;4.394;2023-02-02T13:12:50;12.30;99.90
23540;DHT22;11947;50.810;4.394;2023-02-02T13:15:19;12.30;99.90
23540;DHT22;11947;50.810;4.394;2023-02-02T13:17:52;12.20;99.90
23540;DHT22;11947;50.810;4.394;2023-02-02T13:22:58;12.10;99.90
23540;DHT22;11947;50.810;4.394;2023-02-02T13:25:34;12.40;99.90
23540;DHT22;11947;50.810;4.394;2023-02-02T13:28:03;12.20;99.90
23540;DHT22;11947;50.810;4.394;2023-02-02T13:30:33;12.10;99.90
23540;DHT22;11947;50.810;4.394;2023-02-02T13:33:14;12.10;99.90
23540;DHT22;11947;50.810;4.394;2023-02-02T13:35:56;12.10;99.90
23540;DHT22;11947;50.810;4.394;2023-02-02T13:38:28;12.10;99.90
23540;DHT22;11947;50.810;4.394;2023-02-02T13:41:07;12.00;99.90
23540;DHT22;11947;50.810;4.394;2023-02-02T14:02:46;14.60;99.90
23540;DHT22;11947;50.810;4.394;2023-02-02T14:05:30;15.30;99.90
23540;DHT22;11947;50.810;4.394;2023-02-02T14:07:58;15.20;99.90
23540;DHT22;11947;50.810;4.394;2023-02-02T14:10:43;14.90;99.90
23540;DHT22;11947;50.810;4.394;2023-02-02T14:15:58;14.20;99.90
23540;DHT22;11947;50.810;4.394;2023-02-02T14:18:50;13.90;99.90
23540;DHT22;11947;50.810;4.394;2023-02-02T14:26:54;13.10;99.90
23540;DHT22;11947;50.810;4.394;2023-02-02T14:34:46;12.20;99.90
23540;DHT22;11947;50.810;4.394;2023-02-02T14:47:54;11.90;99.90
23540;DHT22;11947;50.810;4.394;2023-02-02T14:50:40;11.90;99.90
23540;DHT22;11947;50.810;4.394;2023-02-02T15:01:12;11.60;99.90
23540;DHT22;11947;50.810;4.394;2023-02-02T15:06:50;11.50;99.90
23540;DHT22;11947;50.810;4.394;2023-02-02T15:20:05;11.60;99.90
23540;DHT22;11947;50.810;4.394;2023-02-02T15:22:44;11.40;99.90
23540;DHT22;11947;50.810;4.394;2023-02-02T15:25:48;11.30;99.90
23540;DHT22;11947;50.810;4.394;2023-02-02T15:28:25;11.20;99.90
23540;DHT22;11947;50.810;4.394;2023-02-02T15:31:17;11.40;99.90
23540;DHT22;11947;50.810;4.394;2023-02-02T15:33:51;11.10;99.90
23540;DHT22;11947;50.810;4.394;2023-02-02T15:36:19;11.00;99.90
23540;DHT22;11947;50.810;4.394;2023-02-02T15:38:48;11.10;99.90
23540;DHT22;11947;50.810;4.394;2023-02-02T15:41:42;11.00;99.90
23540;DHT22;11947;50.810;4.394;2023-02-02T15:44:18;11.00;99.90
23540;DHT22;11947;50.810;4.394;2023-02-02T15:46:44;11.00;99.90
23540;DHT22;11947;50.810;4.394;2023-02-02T15:49:24;11.00;99.90
23540;DHT22;11947;50.810;4.394;2023-02-02T15:51:56;11.00;99.90
23540;DHT22;11947;50.810;4.394;2023-02-02T15:54:34;11.10;99.90
23540;DHT22;11947;50.810;4.394;2023-02-02T15:57:02;11.10;99.90
23540;DHT22;11947;50.810;4.394;2023-02-02T15:59:37;11.00;99.90
23540;DHT22;11947;50.810;4.394;2023-02-02T16:07:03;10.90;99.90
23540;DHT22;11947;50.810;4.394;2023-02-02T16:09:34;11.00;99.90
23540;DHT22;11947;50.810;4.394;2023-02-02T16:12:02;11.00;99.90
23540;DHT22;11947;50.810;4.394;2023-02-02T16:14:30;11.00;99.90
23540;DHT22;11947;50.810;4.394;2023-02-02T16:17:19;11.10;99.90
23540;DHT22;11947;50.810;4.394;2023-02-02T16:19:46;11.10;99.90
23540;DHT22;11947;50.810;4.394;2023-02-02T16:22:17;10.90;99.90
23540;DHT22;11947;50.810;4.394;2023-02-02T16:24:51;10.90;99.90
23540;DHT22;11947;50.810;4.394;2023-02-02T16:27:19;10.80;99.90
23540;DHT22;11947;50.810;4.394;2023-02-02T16:29:46;10.80;99.90
23540;DHT22;11947;50.810;4.394;2023-02-02T16:32:30;11.00;99.90
23540;DHT22;11947;50.810;4.394;2023-02-02T16:34:57;10.80;99.90
23540;DHT22;11947;50.810;4.394;2023-02-02T16:37:28;11.00;99.90
23540;DHT22;11947;50.810;4.394;2023-02-02T16:40:29;11.00;99.90
23540;DHT22;11947;50.810;4.394;2023-02-02T16:43:17;10.90;99.90
23540;DHT22;11947;50.810;4.394;2023-02-02T16:45:53;10.90;99.90
23540;DHT22;11947;50.810;4.394;2023-02-02T16:48:35;10.70;99.90
23540;DHT22;11947;50.810;4.394;2023-02-02T16:53:35;10.80;99.90
23540;DHT22;11947;50.810;4.394;2023-02-02T16:56:04;10.70;99.90
23540;DHT22;11947;50.810;4.394;2023-02-02T16:58:33;10.80;99.90
23540;DHT22;11947;50.810;4.394;2023-02-02T17:01:05;10.80;99.90
23540;DHT22;11947;50.810;4.394;2023-02-02T17:03:34;10.80;99.90
23540;DHT22;11947;50.810;4.394;2023-02-02T17:06:04;10.70;99.90
23540;DHT22;11947;50.810;4.394;2023-02-02T17:08:36;10.70;99.90
23540;DHT22;11947;50.810;4.394;2023-02-02T17:11:08;10.50;99.90
23540;DHT22;11947;50.810;4.394;2023-02-02T17:13:43;10.40;99.90
23540;DHT22;11947;50.810;4.394;2023-02-02T17:16:14;10.30;99.90
23540;DHT22;11947;50.810;4.394;2023-02-02T17:18:41;10.20;99.90
23540;DHT22;11947;50.810;4.394;2023-02-02T17:21:13;10.40;99.90
23540;DHT22;11947;50.810;4.394;2023-02-02T17:23:39;10.30;99.90
23540;DHT22;11947;50.810;4.394;2023-02-02T17:26:09;10.30;99.90
23540;DHT22;11947;50.810;4.394;2023-02-02T17:28:39;10.20;99.90
23540;DHT22;11947;50.810;4.394;2023-02-02T17:31:10;10.20;99.90
23540;DHT22;11947;50.810;4.394;2023-02-02T17:33:37;10.30;99.90
23540;DHT22;11947;50.810;4.394;2023-02-02T17:36:04;10.00;99.90
23540;DHT22;11947;50.810;4.394;2023-02-02T17:38:30;10.00;99.90
23540;DHT22;11947;50.810;4.394;2023-02-02T17:40:59;9.80;99.90
23540;DHT22;11947;50.810;4.394;2023-02-02T17:43:25;9.90;99.90
23540;DHT22;11947;50.810;4.394;2023-02-02T17:45:51;9.80;99.90
23540;DHT22;11947;50.810;4.394;2023-02-02T17:48:17;9.90;99.90
23540;DHT22;11947;50.810;4.394;2023-02-02T17:50:44;10.20;99.90
23540;DHT22;11947;50.810;4.394;2023-02-02T17:53:27;10.10;99.90
23540;DHT22;11947;50.810;4.394;2023-02-02T17:55:55;10.10;99.90
23540;DHT22;11947;50.810;4.394;2023-02-02T17:58:22;10.00;99.90
23540;DHT22;11947;50.810;4.394;2023-02-02T18:00:51;10.00;99.90
23540;DHT22;11947;50.810;4.394;2023-02-02T18:03:22;10.10;99.90
23540;DHT22;11947;50.810;4.394;2023-02-02T18:05:49;10.10;99.90
23540;DHT22;11947;50.810;4.394;2023-02-02T18:08:15;10.10;99.90
23540;DHT22;11947;50.810;4.394;2023-02-02T18:10:41;10.40;99.90
23540;DHT22;11947;50.810;4.394;2023-02-02T18:13:15;10.10;99.90
23540;DHT22;11947;50.810;4.394;2023-02-02T18:15:42;10.00;99.90
23540;DHT22;11947;50.810;4.394;2023-02-02T18:18:10;10.10;99.90
23540;DHT22;11947;50.810;4.394;2023-02-02T18:20:42;9.90;99.90
23540;DHT22;11947;50.810;4.394;2023-02-02T18:23:07;10.10;99.90
23540;DHT22;11947;50.810;4.394;2023-02-02T18:25:33;9.90;99.90
23540;DHT22;11947;50.810;4.394;2023-02-02T18:27:58;9.80;99.90
23540;DHT22;11947;50.810;4.394;2023-02-02T18:30:25;10.00;99.90
23540;DHT22;11947;50.810;4.394;2023-02-02T18:32:51;10.10;99.90
23540;DHT22;11947;50.810;4.394;2023-02-02T18:35:16;10.20;99.90
23540;DHT22;11947;50.810;4.394;2023-02-02T18:37:42;10.00;99.90
23540;DHT22;11947;50.810;4.394;2023-02-02T18:40:08;10.00;99.90
23540;DHT22;11947;50.810;4.394;2023-02-02T18:42:34;10.00;99.90
23540;DHT22;11947;50.810;4.394;2023-02-02T18:45:01;10.00;99.90